TimeCDT,TemperatureF,Dew PointF,Humidity,Sea Level PressureIn,VisibilityMPH,Wind Direction,Wind SpeedMPH,Gust SpeedMPH,PrecipitationIn,Events,Conditions,WindDirDegrees,DateUTC
12:15 AM,78.8,60.8,54,30.02,10.0,WSW,9.2,-,N/A,,Clear,250,2013-09-11 05:15:00
12:35 AM,75.2,62.6,65,30.02,10.0,NW,5.8,-,N/A,,Clear,310,2013-09-11 05:35:00
12:55 AM,73.4,60.8,65,30.03,10.0,West,6.9,-,N/A,,Clear,260,2013-09-11 05:55:00
1:15 AM,71.6,60.8,69,30.03,10.0,West,6.9,-,N/A,,Clear,260,2013-09-11 06:15:00
1:35 AM,71.6,60.8,69,30.03,10.0,WSW,4.6,-,N/A,,Clear,240,2013-09-11 06:35:00
1:55 AM,69.8,60.8,73,30.03,10.0,West,6.9,-,N/A,,Clear,260,2013-09-11 06:55:00
2:15 AM,69.8,60.8,73,30.03,10.0,SW,5.8,-,N/A,,Clear,230,2013-09-11 07:15:00
2:35 AM,69.8,60.8,73,30.03,10.0,WSW,6.9,-,N/A,,Clear,250,2013-09-11 07:35:00
2:55 AM,71.6,60.8,69,30.03,10.0,SW,6.9,-,N/A,,Clear,230,2013-09-11 07:55:00
3:15 AM,69.8,62.6,78,30.04,10.0,WSW,5.8,-,N/A,,Clear,250,2013-09-11 08:15:00
3:35 AM,69.8,62.6,78,30.04,10.0,West,5.8,-,N/A,,Clear,280,2013-09-11 08:35:00
3:55 AM,69.8,60.8,73,30.03,10.0,West,5.8,-,N/A,,Clear,270,2013-09-11 08:55:00
4:15 AM,69.8,62.6,78,30.03,10.0,WSW,4.6,-,N/A,,Clear,250,2013-09-11 09:15:00
4:35 AM,68.0,62.6,83,30.03,10.0,WSW,6.9,-,N/A,,Clear,240,2013-09-11 09:35:00
4:55 AM,69.8,62.6,78,30.03,10.0,West,5.8,-,N/A,,Clear,260,2013-09-11 09:55:00
5:15 AM,69.8,62.6,78,30.03,10.0,West,6.9,-,N/A,,Clear,270,2013-09-11 10:15:00
5:35 AM,69.8,62.6,78,30.04,10.0,West,4.6,-,N/A,,Clear,270,2013-09-11 10:35:00
5:55 AM,69.8,62.6,78,30.04,10.0,West,6.9,-,N/A,,Clear,270,2013-09-11 10:55:00
6:15 AM,69.8,62.6,78,30.06,10.0,WNW,5.8,-,N/A,,Clear,290,2013-09-11 11:15:00
6:35 AM,68.0,62.6,83,30.07,10.0,WNW,6.9,-,N/A,,Partly Cloudy,300,2013-09-11 11:35:00
6:55 AM,68.0,62.6,83,30.08,10.0,NW,5.8,-,N/A,,Partly Cloudy,310,2013-09-11 11:55:00
7:15 AM,69.8,62.6,78,30.09,10.0,North,4.6,-,N/A,,Clear,350,2013-09-11 12:15:00
7:35 AM,69.8,62.6,78,30.09,10.0,North,5.8,-,N/A,,Clear,10,2013-09-11 12:35:00
7:55 AM,69.8,64.4,83,30.08,10.0,NE,8.1,-,N/A,,Clear,50,2013-09-11 12:55:00
8:15 AM,73.4,64.4,73,30.08,10.0,ENE,8.1,-,N/A,,Clear,60,2013-09-11 13:15:00
8:35 AM,73.4,62.6,69,30.08,10.0,ENE,5.8,-,N/A,,Clear,70,2013-09-11 13:35:00
8:55 AM,73.4,62.6,69,30.09,10.0,East,3.5,-,N/A,,Clear,100,2013-09-11 13:55:00
9:15 AM,75.2,62.6,65,30.09,10.0,East,5.8,-,N/A,,Clear,90,2013-09-11 14:15:00
9:35 AM,77.0,62.6,61,30.09,10.0,ENE,5.8,-,N/A,,Clear,70,2013-09-11 14:35:00
9:55 AM,78.8,62.6,57,30.09,10.0,NE,3.5,-,N/A,,Clear,50,2013-09-11 14:55:00
10:15 AM,78.8,62.6,57,30.09,10.0,Calm,Calm,-,N/A,,Clear,0,2013-09-11 15:15:00
10:35 AM,80.6,64.4,58,30.09,10.0,ESE,4.6,-,N/A,,Clear,110,2013-09-11 15:35:00
10:55 AM,80.6,62.6,54,30.09,10.0,South,4.6,-,N/A,,Partly Cloudy,190,2013-09-11 15:55:00
11:15 AM,80.6,66.2,61,30.09,10.0,Calm,Calm,-,N/A,,Partly Cloudy,0,2013-09-11 16:15:00
11:35 AM,80.6,64.4,58,30.09,10.0,SW,3.5,-,N/A,,Clear,230,2013-09-11 16:35:00
11:55 AM,82.4,66.2,58,30.10,10.0,NNW,8.1,-,N/A,,Clear,330,2013-09-11 16:55:00
12:15 PM,80.6,66.2,61,30.10,10.0,NNW,6.9,-,N/A,,Clear,330,2013-09-11 17:15:00
12:35 PM,78.8,66.2,65,30.09,10.0,NNW,4.6,-,N/A,,Mostly Cloudy,330,2013-09-11 17:35:00
12:55 PM,77.0,69.8,78,30.09,10.0,NNW,3.5,-,N/A,,Mostly Cloudy,340,2013-09-11 17:55:00
1:15 PM,77.0,69.8,78,30.09,10.0,NNW,3.5,-,N/A,,Mostly Cloudy,330,2013-09-11 18:15:00
1:35 PM,75.2,66.2,73,30.09,10.0,NNW,8.1,-,N/A,,Mostly Cloudy,330,2013-09-11 18:35:00
1:55 PM,78.8,66.2,65,30.09,10.0,WNW,5.8,-,N/A,,Partly Cloudy,300,2013-09-11 18:55:00
2:15 PM,80.6,66.2,61,30.08,10.0,NW,4.6,-,N/A,,Clear,310,2013-09-11 19:15:00
2:35 PM,80.6,64.4,58,30.08,10.0,NW,5.8,-,N/A,,Clear,320,2013-09-11 19:35:00
2:55 PM,82.4,64.4,54,30.07,10.0,SW,6.9,-,N/A,,Clear,230,2013-09-11 19:55:00
3:15 PM,82.4,64.4,54,30.07,10.0,WSW,9.2,-,N/A,,Clear,240,2013-09-11 20:15:00
3:35 PM,84.2,64.4,51,30.06,10.0,West,12.7,17.3,N/A,,Clear,270,2013-09-11 20:35:00
3:55 PM,84.2,64.4,51,30.06,10.0,WSW,11.5,-,N/A,,Partly Cloudy,250,2013-09-11 20:55:00
4:15 PM,84.2,64.4,51,30.06,10.0,WSW,10.4,16.1,N/A,,Partly Cloudy,250,2013-09-11 21:15:00
4:35 PM,84.2,64.4,51,30.05,10.0,WSW,16.1,20.7,N/A,,Partly Cloudy,240,2013-09-11 21:35:00
4:55 PM,82.4,64.4,54,30.05,10.0,WSW,13.8,-,N/A,,Scattered Clouds,250,2013-09-11 21:55:00
5:15 PM,82.4,66.2,58,30.05,10.0,WSW,10.4,17.3,N/A,,Partly Cloudy,240,2013-09-11 22:15:00
5:35 PM,82.4,64.4,54,30.05,10.0,West,11.5,-,N/A,,Clear,260,2013-09-11 22:35:00
5:55 PM,80.6,64.4,58,30.05,10.0,WSW,12.7,16.1,N/A,,Partly Cloudy,250,2013-09-11 22:55:00
6:15 PM,80.6,64.4,58,30.04,10.0,WSW,11.5,-,N/A,,Clear,250,2013-09-11 23:15:00
6:35 PM,80.6,64.4,58,30.04,10.0,West,8.1,-,N/A,,Partly Cloudy,260,2013-09-11 23:35:00
6:55 PM,78.8,66.2,65,30.04,10.0,West,5.8,-,N/A,,Partly Cloudy,260,2013-09-11 23:55:00
7:15 PM,77.0,66.2,69,30.04,10.0,West,6.9,-,N/A,,Scattered Clouds,260,2013-09-12 00:15:00
7:35 PM,75.2,68.0,78,30.04,10.0,WSW,5.8,-,N/A,,Scattered Clouds,250,2013-09-12 00:35:00
7:55 PM,73.4,68.0,83,30.04,10.0,West,4.6,-,N/A,,Mostly Cloudy,280,2013-09-12 00:55:00
8:15 PM,73.4,66.2,78,30.04,10.0,West,4.6,-,N/A,,Partly Cloudy,270,2013-09-12 01:15:00
8:35 PM,71.6,66.2,83,30.05,10.0,West,5.8,-,N/A,,Clear,270,2013-09-12 01:35:00
8:55 PM,71.6,66.2,83,30.05,10.0,West,5.8,-,N/A,,Clear,280,2013-09-12 01:55:00
9:15 PM,69.8,64.4,83,30.05,10.0,WNW,6.9,-,N/A,,Clear,290,2013-09-12 02:15:00
9:35 PM,69.8,66.2,88,30.06,10.0,WNW,5.8,-,N/A,,Clear,290,2013-09-12 02:35:00
9:55 PM,69.8,64.4,83,30.05,10.0,WNW,5.8,-,N/A,,Clear,290,2013-09-12 02:55:00
10:15 PM,68.0,64.4,88,30.06,10.0,WNW,5.8,-,N/A,,Clear,290,2013-09-12 03:15:00
10:35 PM,66.2,64.4,94,30.06,10.0,West,5.8,-,N/A,,Clear,280,2013-09-12 03:35:00
10:55 PM,66.2,64.4,94,30.06,10.0,West,6.9,-,N/A,,Clear,270,2013-09-12 03:55:00
11:15 PM,66.2,64.4,94,30.06,10.0,West,6.9,-,N/A,,Clear,270,2013-09-12 04:15:00
11:35 PM,66.2,62.6,88,30.05,10.0,West,5.8,-,N/A,Thunderstorm,Clear,280,2013-09-12 04:35:00
11:55 PM,64.4,60.8,88,30.05,10.0,WNW,6.9,-,N/A,,Clear,300,2013-09-12 04:55:00